createdAt,value
2019-03-28T00:01:59.562Z,14.87
2019-03-28T00:04:27.539Z,15.87
2019-03-28T00:06:55.442Z,16.67
2019-03-28T00:09:23.304Z,15.67
2019-03-28T00:11:51.172Z,14.10
2019-03-28T00:14:19.274Z,15.50
2019-03-28T00:16:47.205Z,14.90
2019-03-28T00:19:14.985Z,15.50
2019-03-28T00:21:42.756Z,15.37
2019-03-28T00:24:14.902Z,15.23
2019-03-28T00:26:42.604Z,15.53
2019-03-28T00:29:10.394Z,15.73
2019-03-28T00:31:38.172Z,16.33
2019-03-28T00:34:05.866Z,17.37
2019-03-28T00:36:33.567Z,16.43
2019-03-28T00:39:01.303Z,16.73
2019-03-28T00:41:29.010Z,16.07
2019-03-28T00:43:56.739Z,15.53
2019-03-28T00:46:24.709Z,16.83
2019-03-28T00:48:53.164Z,16.83
2019-03-28T00:51:20.963Z,18.03
2019-03-28T00:53:48.731Z,17.63
2019-03-28T00:56:16.499Z,18.20
2019-03-28T00:58:44.262Z,16.90
2019-03-28T01:01:12.080Z,16.50
2019-03-28T01:03:39.898Z,17.20
2019-03-28T01:06:07.757Z,16.67
2019-03-28T01:08:35.522Z,16.20
2019-03-28T01:11:03.494Z,17.67
2019-03-28T01:13:31.222Z,18.33
2019-03-28T01:15:59.037Z,17.50
2019-03-28T01:18:26.997Z,16.83
2019-03-28T01:20:54.870Z,19.87
2019-03-28T01:23:22.734Z,18.53
2019-03-28T01:25:50.506Z,17.83
2019-03-28T01:28:18.234Z,18.97
2019-03-28T01:30:46.253Z,17.73
2019-03-28T01:33:14.103Z,17.83
2019-03-28T01:35:41.870Z,17.27
2019-03-28T01:38:09.635Z,17.23
2019-03-28T01:40:37.405Z,18.30
2019-03-28T01:43:05.280Z,17.97
2019-03-28T01:45:33.322Z,17.77
2019-03-28T01:48:01.218Z,17.17
2019-03-28T01:50:28.986Z,17.83
2019-03-28T01:52:56.846Z,18.50
2019-03-28T01:55:24.816Z,18.07
2019-03-28T01:57:52.684Z,16.60
2019-03-28T02:00:20.553Z,16.07
2019-03-28T02:02:48.524Z,17.07
2019-03-28T02:05:16.398Z,17.80
2019-03-28T02:07:44.163Z,16.93
2019-03-28T02:10:11.969Z,18.00
2019-03-28T02:12:39.802Z,15.93
2019-03-28T02:15:09.208Z,16.80
2019-03-28T02:17:37.318Z,16.97
2019-03-28T02:20:06.553Z,17.20
2019-03-28T02:22:34.280Z,16.37
2019-03-28T02:25:02.111Z,16.80
2019-03-28T02:27:29.972Z,16.73
2019-03-28T02:29:58.330Z,16.97
2019-03-28T02:32:26.327Z,16.67
2019-03-28T02:34:54.199Z,16.83
2019-03-28T02:37:21.961Z,16.03
2019-03-28T02:39:50.671Z,17.17
2019-03-28T02:42:18.713Z,17.10
2019-03-28T02:44:46.419Z,17.73
2019-03-28T02:47:14.127Z,17.70
2019-03-28T02:49:41.908Z,16.77
2019-03-28T02:52:09.559Z,17.43
2019-03-28T02:54:37.427Z,17.17
2019-03-28T02:57:05.218Z,17.63
2019-03-28T02:59:32.981Z,17.63
2019-03-28T03:02:00.844Z,17.87
2019-03-28T03:04:28.600Z,17.53
2019-03-28T03:06:56.374Z,16.67
2019-03-28T03:09:24.124Z,18.10
2019-03-28T03:11:51.768Z,18.33
2019-03-28T03:14:19.684Z,21.07
2019-03-28T03:16:48.814Z,20.03
2019-03-28T03:19:16.955Z,17.67
2019-03-28T03:21:44.704Z,18.63
2019-03-28T03:24:12.477Z,18.67
2019-03-28T03:26:40.226Z,20.27
2019-03-28T03:29:08.006Z,19.73
2019-03-28T03:31:35.765Z,18.97
2019-03-28T03:34:05.148Z,19.40
2019-03-28T03:36:32.839Z,21.10
2019-03-28T03:39:00.493Z,20.07
2019-03-28T03:41:28.281Z,19.60
2019-03-28T03:43:56.141Z,19.63
2019-03-28T03:46:24.010Z,18.83
2019-03-28T03:48:51.792Z,19.43
2019-03-28T03:51:19.546Z,18.50
2019-03-28T03:53:47.410Z,19.13
2019-03-28T03:56:15.278Z,18.90
2019-03-28T03:58:43.051Z,18.97
2019-03-28T04:01:10.912Z,19.33
2019-03-28T04:03:38.687Z,19.97
2019-03-28T04:06:06.450Z,19.57
2019-03-28T04:08:34.315Z,17.70
2019-03-28T04:11:02.086Z,20.07
2019-03-28T04:13:29.857Z,19.73
2019-03-28T04:15:57.717Z,18.87
2019-03-28T04:18:25.598Z,18.10
2019-03-28T04:20:53.459Z,18.17
2019-03-28T04:23:21.223Z,19.20
2019-03-28T04:25:48.990Z,19.13
2019-03-28T04:28:30.668Z,19.47
2019-03-28T04:30:46.253Z,20.07
2019-03-28T04:33:13.954Z,19.30
2019-03-28T04:35:41.677Z,17.30
2019-03-28T04:38:09.479Z,17.53
2019-03-28T04:40:37.195Z,19.03
2019-03-28T04:43:05.079Z,19.20
2019-03-28T04:45:32.871Z,17.50
2019-03-28T04:48:01.509Z,18.57
2019-03-28T04:50:29.611Z,19.53
2019-03-28T04:52:57.581Z,21.30
2019-03-28T04:55:25.553Z,19.37
2019-03-28T04:57:53.420Z,18.87
2019-03-28T05:00:21.488Z,19.37
2019-03-28T05:02:49.370Z,18.23
2019-03-28T05:05:17.230Z,20.10
2019-03-28T05:07:44.989Z,19.50
2019-03-28T05:10:14.329Z,21.17
2019-03-28T05:12:43.287Z,19.07
2019-03-28T05:15:11.358Z,19.03
2019-03-28T05:17:38.999Z,20.30
2019-03-28T05:20:07.100Z,19.03
2019-03-28T05:22:34.748Z,22.43
2019-03-28T05:25:02.419Z,21.27
2019-03-28T05:27:30.202Z,20.97
2019-03-28T05:29:58.063Z,20.10
2019-03-28T05:32:26.261Z,22.23
2019-03-28T05:34:54.088Z,22.57
2019-03-28T05:37:21.751Z,20.00
2019-03-28T05:39:49.496Z,20.70
2019-03-28T05:42:17.501Z,22.10
2019-03-28T05:44:45.576Z,22.03
2019-03-28T05:47:13.341Z,20.93
2019-03-28T05:49:41.123Z,21.37
2019-03-28T05:52:11.631Z,21.07
2019-03-28T05:54:38.225Z,22.27
2019-03-28T05:57:05.938Z,27.93
2019-03-28T05:59:33.814Z,24.73
2019-03-28T06:02:01.683Z,23.40
2019-03-28T06:04:29.431Z,23.63
2019-03-28T06:06:57.305Z,24.30
2019-03-28T06:09:25.090Z,22.93
2019-03-28T06:11:53.128Z,22.03
2019-03-28T06:14:20.799Z,22.60
2019-03-28T06:16:48.690Z,27.50
2019-03-28T06:19:16.446Z,47.13
2019-03-28T06:21:44.227Z,30.63
2019-03-28T06:24:11.994Z,30.03
2019-03-28T06:26:39.735Z,25.80
2019-03-28T06:29:08.739Z,26.37
2019-03-28T06:31:36.827Z,23.47
2019-03-28T06:34:05.401Z,26.25
2019-03-28T06:36:33.170Z,30.70
2019-03-28T06:39:00.885Z,24.30
2019-03-28T06:41:28.595Z,29.33
2019-03-28T06:43:56.232Z,22.63
2019-03-28T06:46:23.945Z,21.43
2019-03-28T06:48:51.688Z,19.77
2019-03-28T06:51:19.450Z,19.47
2019-03-28T06:53:47.115Z,19.73
2019-03-28T06:56:14.813Z,18.53
2019-03-28T06:58:42.542Z,19.80
2019-03-28T07:01:10.198Z,19.10
2019-03-28T07:03:38.452Z,17.67
2019-03-28T07:06:06.304Z,16.77
2019-03-28T07:08:34.126Z,16.60
2019-03-28T07:11:02.520Z,19.13
2019-03-28T07:13:30.365Z,19.90
2019-03-28T07:15:58.134Z,20.00
2019-03-28T07:18:25.901Z,19.87
2019-03-28T07:20:53.547Z,17.87
2019-03-28T07:23:21.336Z,17.77
2019-03-28T07:25:48.986Z,21.37
2019-03-28T07:28:16.970Z,17.47
2019-03-28T07:30:45.362Z,17.90
2019-03-28T07:33:13.160Z,17.73
2019-03-28T07:35:40.885Z,17.27
2019-03-28T07:38:08.590Z,17.00
2019-03-28T07:40:36.375Z,19.37
2019-03-28T07:43:04.279Z,16.20
2019-03-28T07:45:34.456Z,19.00
2019-03-28T07:48:01.456Z,15.40
2019-03-28T07:50:29.320Z,18.90
2019-03-28T07:52:57.079Z,19.63
2019-03-28T07:55:24.745Z,22.07
2019-03-28T07:57:52.511Z,18.70
2019-03-28T08:00:20.277Z,20.20
2019-03-28T08:02:48.147Z,19.07
2019-03-28T08:05:15.987Z,19.70
2019-03-28T08:07:45.778Z,20.77
2019-03-28T08:10:13.294Z,19.67
2019-03-28T08:12:41.163Z,19.07
2019-03-28T08:15:09.541Z,21.83
2019-03-28T08:17:37.298Z,18.70
2019-03-28T08:20:06.212Z,21.30
2019-03-28T08:22:34.062Z,20.83
2019-03-28T08:25:01.933Z,20.53
2019-03-28T08:27:29.580Z,15.57
2019-03-28T08:29:57.956Z,17.33
2019-03-28T08:32:27.381Z,21.77
2019-03-28T08:34:55.860Z,18.20
2019-03-28T08:37:24.327Z,17.77
2019-03-28T08:39:52.109Z,17.57
2019-03-28T08:42:19.886Z,16.33
2019-03-28T08:44:47.637Z,18.17
2019-03-28T08:47:15.410Z,15.30
2019-03-28T08:49:43.286Z,20.87
2019-03-28T08:52:11.959Z,18.60
2019-03-28T08:54:40.041Z,16.50
2019-03-28T08:57:07.683Z,14.73
2019-03-28T08:59:35.470Z,17.67
2019-03-28T09:02:05.072Z,16.00
2019-03-28T09:04:32.723Z,14.60
2019-03-28T09:07:00.449Z,13.57
2019-03-28T09:09:28.179Z,14.23
2019-03-28T09:11:55.920Z,15.30
2019-03-28T09:14:23.710Z,16.13
2019-03-28T09:16:51.347Z,13.63
2019-03-28T09:19:19.032Z,14.27
2019-03-28T09:21:46.894Z,13.90
2019-03-28T09:24:14.762Z,15.77
2019-03-28T09:26:42.636Z,14.60
2019-03-28T09:29:10.504Z,13.93
2019-03-28T09:31:38.265Z,13.33
2019-03-28T09:34:06.152Z,12.70
2019-03-28T09:36:33.810Z,12.63
2019-03-28T09:39:01.580Z,11.67
2019-03-28T09:41:29.416Z,10.30
2019-03-28T09:43:57.307Z,8.57
2019-03-28T09:46:25.078Z,10.13
2019-03-28T09:48:52.836Z,9.77
2019-03-28T09:51:20.511Z,9.43
2019-03-28T09:53:48.347Z,8.03
2019-03-28T09:56:16.120Z,8.80
2019-03-28T09:58:43.888Z,8.53
2019-03-28T10:01:11.598Z,9.53
2019-03-28T10:03:41.196Z,8.17
2019-03-28T10:06:08.945Z,8.33
2019-03-28T10:08:36.644Z,8.20
2019-03-28T10:11:04.297Z,8.63
2019-03-28T10:13:32.008Z,8.30
2019-03-28T10:15:59.701Z,7.80
2019-03-28T10:18:29.954Z,9.83
2019-03-28T10:20:56.771Z,10.33
2019-03-28T10:23:24.630Z,9.07
2019-03-28T10:25:52.481Z,10.40
2019-03-28T10:28:20.375Z,18.60
2019-03-28T10:30:48.236Z,14.53
2019-03-28T10:33:15.992Z,8.53
2019-03-28T10:35:43.775Z,8.53
2019-03-28T10:38:11.523Z,7.87
2019-03-28T10:40:39.295Z,7.37
2019-03-28T10:43:06.943Z,8.20
2019-03-28T10:45:34.685Z,7.13
2019-03-28T10:48:02.488Z,7.60
2019-03-28T10:50:40.772Z,6.80
2019-03-28T10:52:59.544Z,9.03
2019-03-28T10:55:27.269Z,8.83
2019-03-28T10:57:54.933Z,5.13
2019-03-28T11:00:24.320Z,4.87
2019-03-28T11:02:52.184Z,4.87
2019-03-28T11:05:19.926Z,5.60
2019-03-28T11:07:47.699Z,6.83
2019-03-28T11:10:15.659Z,9.87
2019-03-28T11:12:43.430Z,10.50
2019-03-28T11:15:13.237Z,9.70
2019-03-28T11:17:41.012Z,10.17
2019-03-28T11:20:09.773Z,7.23
2019-03-28T11:22:37.664Z,5.97
2019-03-28T11:25:06.408Z,5.93
2019-03-28T11:27:34.224Z,5.40
2019-03-28T11:30:02.197Z,4.87
2019-03-28T11:32:29.970Z,5.20
2019-03-28T11:34:57.624Z,5.30
2019-03-28T11:37:26.701Z,6.07
2019-03-28T11:39:54.938Z,12.07
2019-03-28T11:42:22.654Z,9.27
2019-03-28T11:44:50.440Z,7.33
2019-03-28T11:47:18.191Z,6.70
2019-03-28T11:49:45.949Z,6.03
2019-03-28T11:52:13.577Z,4.97
2019-03-28T11:54:41.394Z,5.53
2019-03-28T11:57:09.135Z,4.93
2019-03-28T11:59:36.916Z,8.47
2019-03-28T12:02:19.279Z,5.35
2019-03-28T12:04:34.905Z,6.13
2019-03-28T12:07:02.673Z,5.37
2019-03-28T12:09:30.460Z,4.13
2019-03-28T12:11:58.318Z,4.17
2019-03-28T12:14:26.082Z,4.97
2019-03-28T12:16:53.846Z,4.10
2019-03-28T12:19:21.503Z,4.23
2019-03-28T12:21:49.297Z,5.10
2019-03-28T12:24:17.016Z,5.90
2019-03-28T12:26:44.759Z,8.13
2019-03-28T12:29:12.499Z,4.97
2019-03-28T12:31:40.342Z,3.60
2019-03-28T12:34:08.107Z,3.97
2019-03-28T12:36:35.743Z,3.63
2019-03-28T12:39:04.611Z,3.97
2019-03-28T12:41:32.426Z,4.60
2019-03-28T12:44:00.113Z,4.50
2019-03-28T12:46:27.849Z,5.57
2019-03-28T12:48:55.626Z,5.10
2019-03-28T12:51:23.372Z,4.97
2019-03-28T12:53:51.074Z,5.33
2019-03-28T12:56:18.790Z,5.10
2019-03-28T12:58:46.580Z,4.57
2019-03-28T13:01:15.207Z,5.60
2019-03-28T13:03:45.865Z,5.63
2019-03-28T13:06:12.213Z,5.33
2019-03-28T13:08:39.893Z,5.80
2019-03-28T13:11:07.644Z,5.83
2019-03-28T13:13:35.321Z,5.93
2019-03-28T13:16:03.097Z,5.30
2019-03-28T13:18:30.952Z,4.40
2019-03-28T13:21:12.353Z,4.10
2019-03-28T13:23:28.117Z,3.50
2019-03-28T13:25:55.873Z,4.27
2019-03-28T13:28:23.666Z,4.23
2019-03-28T13:30:51.423Z,4.30
2019-03-28T13:33:19.188Z,4.57
2019-03-28T13:35:46.967Z,5.33
2019-03-28T13:38:14.808Z,7.23
2019-03-28T13:40:42.482Z,7.13
2019-03-28T13:43:10.265Z,7.37
2019-03-28T13:45:38.013Z,6.47
2019-03-28T13:48:05.749Z,6.43
2019-03-28T13:50:33.558Z,5.90
2019-03-28T13:53:01.236Z,13.90
2019-03-28T13:55:28.918Z,9.33
2019-03-28T13:57:56.655Z,8.00
2019-03-28T14:00:25.941Z,9.47
2019-03-28T14:02:57.277Z,7.40
2019-03-28T14:05:23.010Z,9.53
2019-03-28T14:07:50.773Z,9.17
2019-03-28T14:10:21.593Z,8.07
2019-03-28T14:12:47.905Z,9.13
2019-03-28T14:15:15.709Z,7.57
2019-03-28T14:17:43.561Z,8.17
2019-03-28T14:20:11.757Z,8.80
2019-03-28T14:22:39.630Z,10.33
2019-03-28T14:25:08.008Z,9.27
2019-03-28T14:27:35.772Z,9.63
2019-03-28T14:30:03.952Z,9.60
2019-03-28T14:32:33.038Z,7.70
2019-03-28T14:35:01.017Z,8.73
2019-03-28T14:37:29.506Z,9.80
2019-03-28T14:39:57.165Z,8.90
2019-03-28T14:42:24.940Z,9.27
2019-03-28T14:44:52.899Z,9.83
2019-03-28T14:47:20.674Z,11.83
2019-03-28T14:49:48.430Z,9.60
2019-03-28T14:52:16.190Z,11.73
2019-03-28T14:54:43.902Z,10.30
2019-03-28T14:57:12.204Z,12.23
2019-03-28T14:59:40.111Z,17.00
2019-03-28T15:02:08.980Z,16.53
2019-03-28T15:04:36.872Z,18.47
2019-03-28T15:07:07.148Z,12.93
2019-03-28T15:09:35.555Z,26.43
2019-03-28T15:12:03.427Z,22.83
2019-03-28T15:14:31.313Z,36.43
2019-03-28T15:16:59.182Z,16.57
2019-03-28T15:19:26.934Z,11.90
2019-03-28T15:21:54.646Z,19.67
2019-03-28T15:24:22.550Z,18.53
2019-03-28T15:26:50.438Z,16.70
2019-03-28T15:29:18.299Z,21.27
2019-03-28T15:31:45.964Z,46.63
2019-03-28T15:34:13.743Z,22.17
2019-03-28T15:36:42.186Z,22.73
2019-03-28T15:39:10.187Z,15.73
2019-03-28T15:41:37.978Z,15.23
2019-03-28T15:44:05.716Z,14.57
2019-03-28T15:46:33.506Z,12.80
2019-03-28T15:49:01.814Z,13.80
2019-03-28T15:51:29.631Z,21.77
2019-03-28T15:53:57.423Z,10.37
2019-03-28T15:56:25.125Z,13.00
2019-03-28T15:58:52.784Z,15.40
2019-03-28T16:01:20.709Z,20.70
2019-03-28T16:03:53.239Z,26.67
2019-03-28T16:06:17.873Z,32.37
2019-03-28T16:08:45.645Z,38.43
2019-03-28T16:11:13.616Z,18.53
2019-03-28T16:13:41.378Z,13.73
2019-03-28T16:16:09.129Z,13.53
2019-03-28T16:18:36.916Z,11.77
2019-03-28T16:21:04.677Z,21.10
2019-03-28T16:23:32.446Z,20.50
2019-03-28T16:26:00.604Z,12.60
2019-03-28T16:28:28.500Z,9.50
2019-03-28T16:30:56.132Z,8.93
2019-03-28T16:33:24.021Z,8.80
2019-03-28T16:35:51.887Z,11.40
2019-03-28T16:38:19.859Z,15.77
2019-03-28T16:40:47.724Z,9.23
2019-03-28T16:43:15.372Z,9.03
2019-03-28T16:45:43.155Z,8.53
2019-03-28T16:48:10.813Z,11.10
2019-03-28T16:50:38.483Z,9.93
2019-03-28T16:53:06.333Z,8.20
2019-03-28T16:55:33.995Z,9.03
2019-03-28T16:58:01.776Z,8.53
2019-03-28T17:00:38.781Z,9.13
2019-03-28T17:03:06.729Z,10.33
2019-03-28T17:05:34.841Z,9.60
2019-03-28T17:08:02.674Z,8.90
2019-03-28T17:10:43.445Z,9.43
2019-03-28T17:13:11.319Z,10.50
2019-03-28T17:15:39.087Z,10.53
2019-03-28T17:18:06.949Z,12.33
2019-03-28T17:20:34.701Z,25.47
2019-03-28T17:23:02.715Z,30.57
2019-03-28T17:25:30.344Z,26.23
2019-03-28T17:27:58.108Z,33.50
2019-03-28T17:30:27.003Z,36.50
2019-03-28T17:32:54.840Z,24.30
2019-03-28T17:35:22.738Z,19.00
2019-03-28T17:37:50.657Z,17.73
2019-03-28T17:40:18.584Z,16.53
2019-03-28T17:42:47.871Z,21.40
2019-03-28T17:45:15.965Z,21.03
2019-03-28T17:47:44.211Z,42.47
2019-03-28T17:50:11.857Z,35.50
2019-03-28T17:52:39.665Z,109.93
2019-03-28T17:55:07.637Z,48.33
2019-03-28T17:57:35.351Z,139.17
2019-03-28T18:00:03.650Z,129.77
2019-03-28T18:02:31.337Z,243.63
2019-03-28T18:05:08.934Z,68.17
2019-03-28T18:07:28.368Z,44.07
2019-03-28T18:09:56.073Z,36.73
2019-03-28T18:12:23.786Z,27.10
2019-03-28T18:14:51.498Z,25.60
2019-03-28T18:17:19.177Z,23.83
2019-03-28T18:19:47.034Z,26.90
2019-03-28T18:22:14.898Z,36.53
2019-03-28T18:24:42.672Z,28.37
2019-03-28T18:27:10.373Z,25.77
2019-03-28T18:29:38.195Z,27.47
2019-03-28T18:32:05.963Z,31.50
2019-03-28T18:34:33.610Z,34.53
2019-03-28T18:37:01.403Z,30.77
2019-03-28T18:39:29.177Z,23.87
2019-03-28T18:41:56.856Z,32.23
2019-03-28T18:44:24.895Z,19.03
2019-03-28T18:46:52.665Z,19.73
2019-03-28T18:49:20.635Z,17.67
2019-03-28T18:51:48.411Z,16.97
2019-03-28T18:54:16.156Z,15.77
2019-03-28T18:56:43.837Z,16.03
2019-03-28T18:59:11.595Z,52.67
2019-03-28T19:01:39.465Z,61.77
2019-03-28T19:04:07.333Z,51.53
2019-03-28T19:06:34.995Z,47.63
2019-03-28T19:09:02.644Z,38.20
2019-03-28T19:11:30.425Z,21.17
2019-03-28T19:13:58.087Z,16.70
2019-03-28T19:16:25.853Z,18.07
2019-03-28T19:18:53.717Z,17.40
2019-03-28T19:21:21.368Z,16.20
2019-03-28T19:23:49.159Z,15.90
2019-03-28T19:26:16.922Z,18.13
2019-03-28T19:28:44.788Z,19.43
2019-03-28T19:31:12.445Z,21.83
2019-03-28T19:33:40.904Z,21.17
2019-03-28T19:36:09.208Z,24.63
2019-03-28T19:38:36.972Z,24.50
2019-03-28T19:41:04.623Z,22.93
2019-03-28T19:43:32.609Z,23.53
2019-03-28T19:46:00.373Z,21.93
2019-03-28T19:48:28.240Z,25.37
2019-03-28T19:50:56.107Z,26.13
2019-03-28T19:53:23.868Z,24.33
2019-03-28T19:55:51.624Z,25.67
2019-03-28T19:58:19.418Z,24.20
2019-03-28T20:00:47.176Z,25.53
2019-03-28T20:03:14.958Z,23.80
2019-03-28T20:05:47.818Z,27.33
2019-03-28T20:08:15.767Z,27.40
2019-03-28T20:10:41.526Z,28.57
2019-03-28T20:13:09.507Z,26.87
2019-03-28T20:15:37.356Z,23.47
2019-03-28T20:18:05.619Z,33.65
2019-03-28T20:20:33.495Z,32.97
2019-03-28T20:23:01.368Z,28.43
2019-03-28T20:25:29.003Z,42.60
2019-03-28T20:27:56.799Z,20.93
2019-03-28T20:30:24.465Z,22.73
2019-03-28T20:32:52.334Z,22.67
2019-03-28T20:35:20.180Z,23.37
2019-03-28T20:37:47.844Z,26.50
2019-03-28T20:40:15.919Z,27.67
2019-03-28T20:42:43.614Z,26.83
2019-03-28T20:45:11.399Z,28.07
2019-03-28T20:47:39.242Z,28.90
2019-03-28T20:50:07.409Z,29.13
2019-03-28T20:52:35.682Z,31.80
2019-03-28T20:55:03.435Z,26.50
2019-03-28T20:57:31.220Z,20.37
2019-03-28T20:59:58.968Z,27.63
2019-03-28T21:02:26.745Z,30.80
2019-03-28T21:04:54.462Z,28.90
2019-03-28T21:07:22.142Z,24.23
2019-03-28T21:09:49.943Z,24.43
2019-03-28T21:12:17.911Z,29.80
2019-03-28T21:14:45.503Z,31.37
2019-03-28T21:17:13.244Z,27.57
2019-03-28T21:19:41.003Z,27.63
2019-03-28T21:22:08.879Z,28.50
2019-03-28T21:24:36.632Z,28.40
2019-03-28T21:27:04.391Z,31.73
2019-03-28T21:29:33.929Z,27.20
2019-03-28T21:32:01.796Z,24.60
2019-03-28T21:34:29.562Z,22.90
2019-03-28T21:36:58.734Z,25.10
2019-03-28T21:39:26.824Z,22.80
2019-03-28T21:41:54.590Z,24.23
2019-03-28T21:44:22.961Z,28.53
2019-03-28T21:46:50.977Z,31.33
2019-03-28T21:49:18.804Z,41.13
2019-03-28T21:51:47.662Z,50.50
2019-03-28T21:54:15.619Z,37.37
2019-03-28T21:56:43.433Z,38.53
2019-03-28T21:59:11.307Z,30.13
2019-03-28T22:01:38.970Z,20.67
2019-03-28T22:04:06.730Z,28.80
2019-03-28T22:06:42.726Z,26.27
2019-03-28T22:09:05.435Z,28.40
2019-03-28T22:11:33.116Z,32.93
2019-03-28T22:14:01.597Z,33.07
2019-03-28T22:16:29.354Z,35.60
2019-03-28T22:18:57.436Z,34.10
2019-03-28T22:21:27.418Z,38.00
2019-03-28T22:23:54.668Z,42.83
2019-03-28T22:26:22.343Z,35.03
2019-03-28T22:28:49.988Z,36.80
2019-03-28T22:31:17.697Z,33.90
2019-03-28T22:33:45.452Z,33.93
2019-03-28T22:36:13.215Z,34.23
2019-03-28T22:38:40.863Z,33.37
2019-03-28T22:41:08.748Z,33.10
2019-03-28T22:43:38.779Z,31.00
2019-03-28T22:46:05.937Z,31.90
2019-03-28T22:48:33.681Z,32.13
2019-03-28T22:51:01.456Z,33.97
2019-03-28T22:53:29.421Z,34.03
2019-03-28T22:55:57.176Z,35.53
2019-03-28T22:58:24.949Z,34.80
2019-03-28T23:00:54.463Z,34.67
2019-03-28T23:03:22.318Z,35.33
2019-03-28T23:05:50.196Z,32.03
2019-03-28T23:08:18.073Z,30.20
2019-03-28T23:10:45.938Z,34.13
2019-03-28T23:13:13.571Z,32.90
2019-03-28T23:15:41.328Z,30.80
2019-03-28T23:18:09.157Z,35.87
2019-03-28T23:20:36.894Z,30.87
2019-03-28T23:23:04.569Z,44.30
2019-03-28T23:25:32.423Z,50.87
2019-03-28T23:28:00.189Z,55.33
2019-03-28T23:30:28.081Z,56.60
2019-03-28T23:32:56.650Z,57.80
2019-03-28T23:35:24.413Z,59.77
2019-03-28T23:37:52.198Z,52.87
2019-03-28T23:40:20.059Z,53.50
2019-03-28T23:42:47.811Z,55.10
2019-03-28T23:45:15.664Z,55.60
2019-03-28T23:47:43.623Z,58.17
2019-03-28T23:50:12.015Z,54.60
2019-03-28T23:52:40.309Z,51.90
2019-03-28T23:55:08.063Z,50.97
2019-03-28T23:57:36.045Z,53.00
